sensor_id;sensor_type;location;lat;lon;timestamp;temperature;humidity
16955;DHT22;8594;52.052;8.354;2022-12-18T00:02:26;-4.20;99.90
16955;DHT22;8594;52.052;8.354;2022-12-18T00:04:53;-4.10;99.90
16955;DHT22;8594;52.052;8.354;2022-12-18T00:07:21;-4.00;99.90
16955;DHT22;8594;52.052;8.354;2022-12-18T00:09:48;-4.00;99.90
16955;DHT22;8594;52.052;8.354;2022-12-18T00:12:15;-4.00;99.90
16955;DHT22;8594;52.052;8.354;2022-12-18T00:14:42;-4.10;99.90
16955;DHT22;8594;52.052;8.354;2022-12-18T00:17:09;-4.10;99.90
16955;DHT22;8594;52.052;8.354;2022-12-18T00:19:36;-4.20;99.90
16955;DHT22;8594;52.052;8.354;2022-12-18T00:22:03;-4.20;99.90
16955;DHT22;8594;52.052;8.354;2022-12-18T00:24:32;-4.20;99.90
16955;DHT22;8594;52.052;8.354;2022-12-18T00:26:59;-4.20;99.90
16955;DHT22;8594;52.052;8.354;2022-12-18T00:29:26;-3.90;99.90
16955;DHT22;8594;52.052;8.354;2022-12-18T00:31:53;-4.10;99.90
16955;DHT22;8594;52.052;8.354;2022-12-18T00:34:20;-4.20;99.90
16955;DHT22;8594;52.052;8.354;2022-12-18T00:36:48;-4.30;99.90
16955;DHT22;8594;52.052;8.354;2022-12-18T00:39:15;-4.50;99.90
16955;DHT22;8594;52.052;8.354;2022-12-18T00:41:44;-4.20;99.90
16955;DHT22;8594;52.052;8.354;2022-12-18T00:44:39;-3.90;99.90
16955;DHT22;8594;52.052;8.354;2022-12-18T00:47:06;-3.90;99.90
16955;DHT22;8594;52.052;8.354;2022-12-18T00:49:33;-4.10;99.90
16955;DHT22;8594;52.052;8.354;2022-12-18T00:52:00;-4.10;99.90
16955;DHT22;8594;52.052;8.354;2022-12-18T00:54:27;-4.30;99.90
16955;DHT22;8594;52.052;8.354;2022-12-18T00:56:55;-4.40;99.90
16955;DHT22;8594;52.052;8.354;2022-12-18T00:59:23;-4.40;99.90
16955;DHT22;8594;52.052;8.354;2022-12-18T01:01:50;-4.50;99.90
16955;DHT22;8594;52.052;8.354;2022-12-18T01:04:17;-4.70;99.90
16955;DHT22;8594;52.052;8.354;2022-12-18T01:06:43;-4.60;99.90
16955;DHT22;8594;52.052;8.354;2022-12-18T01:09:10;-4.30;99.90
16955;DHT22;8594;52.052;8.354;2022-12-18T01:11:37;-4.40;99.90
16955;DHT22;8594;52.052;8.354;2022-12-18T01:14:06;-4.40;99.90
16955;DHT22;8594;52.052;8.354;2022-12-18T01:16:33;-4.50;99.90
16955;DHT22;8594;52.052;8.354;2022-12-18T01:19:00;-4.60;99.90
16955;DHT22;8594;52.052;8.354;2022-12-18T01:21:27;-4.60;99.90
16955;DHT22;8594;52.052;8.354;2022-12-18T01:23:55;-4.50;99.90
16955;DHT22;8594;52.052;8.354;2022-12-18T01:26:24;-4.50;99.90
16955;DHT22;8594;52.052;8.354;2022-12-18T01:28:55;-4.40;99.90
16955;DHT22;8594;52.052;8.354;2022-12-18T01:31:26;-4.50;99.90
16955;DHT22;8594;52.052;8.354;2022-12-18T01:33:55;-4.50;99.90
16955;DHT22;8594;52.052;8.354;2022-12-18T01:36:23;-4.60;99.90
16955;DHT22;8594;52.052;8.354;2022-12-18T01:38:52;-4.70;99.90
16955;DHT22;8594;52.052;8.354;2022-12-18T01:41:21;-4.80;99.90
16955;DHT22;8594;52.052;8.354;2022-12-18T01:43:52;-4.90;99.90
16955;DHT22;8594;52.052;8.354;2022-12-18T01:46:25;-4.90;99.90
16955;DHT22;8594;52.052;8.354;2022-12-18T01:48:56;-4.70;99.90
16955;DHT22;8594;52.052;8.354;2022-12-18T01:51:27;-4.70;99.90
16955;DHT22;8594;52.052;8.354;2022-12-18T01:53:56;-4.80;99.90
16955;DHT22;8594;52.052;8.354;2022-12-18T01:56:25;-4.70;99.90
16955;DHT22;8594;52.052;8.354;2022-12-18T01:58:56;-4.80;99.90
16955;DHT22;8594;52.052;8.354;2022-12-18T02:01:29;-4.70;99.90
16955;DHT22;8594;52.052;8.354;2022-12-18T02:04:18;-4.50;99.90
16955;DHT22;8594;52.052;8.354;2022-12-18T02:06:51;-4.50;99.90
16955;DHT22;8594;52.052;8.354;2022-12-18T02:09:29;-4.60;99.90
16955;DHT22;8594;52.052;8.354;2022-12-18T02:12:04;-4.80;99.90
16955;DHT22;8594;52.052;8.354;2022-12-18T02:14:40;-4.90;99.90
16955;DHT22;8594;52.052;8.354;2022-12-18T02:17:16;-4.90;99.90
16955;DHT22;8594;52.052;8.354;2022-12-18T02:19:55;-4.90;99.90
16955;DHT22;8594;52.052;8.354;2022-12-18T02:22:39;-4.80;99.90
16955;DHT22;8594;52.052;8.354;2022-12-18T02:25:26;-4.80;99.90
16955;DHT22;8594;52.052;8.354;2022-12-18T02:28:11;-5.00;99.90
16955;DHT22;8594;52.052;8.354;2022-12-18T02:30:41;-4.90;99.90
16955;DHT22;8594;52.052;8.354;2022-12-18T02:33:11;-4.50;99.90
16955;DHT22;8594;52.052;8.354;2022-12-18T02:35:41;-4.80;99.90
16955;DHT22;8594;52.052;8.354;2022-12-18T02:38:09;-4.90;99.90
16955;DHT22;8594;52.052;8.354;2022-12-18T02:40:38;-4.80;99.90
16955;DHT22;8594;52.052;8.354;2022-12-18T02:43:09;-4.80;99.90
16955;DHT22;8594;52.052;8.354;2022-12-18T02:45:45;-4.80;99.90
16955;DHT22;8594;52.052;8.354;2022-12-18T02:48:13;-4.80;99.90
16955;DHT22;8594;52.052;8.354;2022-12-18T02:50:45;-4.80;99.90
16955;DHT22;8594;52.052;8.354;2022-12-18T02:53:26;-4.80;99.90
16955;DHT22;8594;52.052;8.354;2022-12-18T02:56:03;-4.80;99.90
16955;DHT22;8594;52.052;8.354;2022-12-18T02:58:46;-4.80;99.90
16955;DHT22;8594;52.052;8.354;2022-12-18T03:01:19;-4.80;99.90
16955;DHT22;8594;52.052;8.354;2022-12-18T03:03:52;-4.80;99.90
16955;DHT22;8594;52.052;8.354;2022-12-18T03:06:26;-4.80;99.90
16955;DHT22;8594;52.052;8.354;2022-12-18T03:08:59;-4.90;99.90
16955;DHT22;8594;52.052;8.354;2022-12-18T03:11:32;-5.00;99.90
16955;DHT22;8594;52.052;8.354;2022-12-18T03:14:22;-4.50;99.90
16955;DHT22;8594;52.052;8.354;2022-12-18T03:16:54;-4.40;99.90
16955;DHT22;8594;52.052;8.354;2022-12-18T03:19:26;-4.40;99.90
16955;DHT22;8594;52.052;8.354;2022-12-18T03:21:57;-4.60;99.90
16955;DHT22;8594;52.052;8.354;2022-12-18T03:24:27;-4.70;99.90
16955;DHT22;8594;52.052;8.354;2022-12-18T03:27:00;-4.80;99.90
16955;DHT22;8594;52.052;8.354;2022-12-18T03:29:35;-4.80;99.90
16955;DHT22;8594;52.052;8.354;2022-12-18T03:32:08;-4.90;99.90
16955;DHT22;8594;52.052;8.354;2022-12-18T03:34:40;-5.00;99.90
16955;DHT22;8594;52.052;8.354;2022-12-18T03:37:09;-4.60;99.90
16955;DHT22;8594;52.052;8.354;2022-12-18T03:39:37;-4.40;99.90
16955;DHT22;8594;52.052;8.354;2022-12-18T03:42:08;-4.50;99.90
16955;DHT22;8594;52.052;8.354;2022-12-18T03:44:44;-4.70;99.90
16955;DHT22;8594;52.052;8.354;2022-12-18T03:47:25;-4.90;99.90
16955;DHT22;8594;52.052;8.354;2022-12-18T03:49:59;-5.00;99.90
16955;DHT22;8594;52.052;8.354;2022-12-18T03:52:36;-5.00;99.90
16955;DHT22;8594;52.052;8.354;2022-12-18T03:55:08;-5.10;99.90
16955;DHT22;8594;52.052;8.354;2022-12-18T03:57:37;-4.90;99.90
16955;DHT22;8594;52.052;8.354;2022-12-18T04:00:10;-4.60;99.90
16955;DHT22;8594;52.052;8.354;2022-12-18T04:02:42;-4.40;99.90
16955;DHT22;8594;52.052;8.354;2022-12-18T04:05:14;-4.70;99.90
16955;DHT22;8594;52.052;8.354;2022-12-18T04:07:43;-4.80;99.90
16955;DHT22;8594;52.052;8.354;2022-12-18T04:10:12;-4.80;99.90
16955;DHT22;8594;52.052;8.354;2022-12-18T04:12:41;-4.90;99.90
16955;DHT22;8594;52.052;8.354;2022-12-18T04:15:10;-4.90;99.90
16955;DHT22;8594;52.052;8.354;2022-12-18T04:17:38;-4.90;99.90
16955;DHT22;8594;52.052;8.354;2022-12-18T04:20:09;-4.90;99.90
16955;DHT22;8594;52.052;8.354;2022-12-18T04:22:36;-4.90;99.90
16955;DHT22;8594;52.052;8.354;2022-12-18T04:25:04;-4.80;99.90
16955;DHT22;8594;52.052;8.354;2022-12-18T04:27:31;-4.80;99.90
16955;DHT22;8594;52.052;8.354;2022-12-18T04:29:58;-4.90;99.90
16955;DHT22;8594;52.052;8.354;2022-12-18T04:32:26;-4.90;99.90
16955;DHT22;8594;52.052;8.354;2022-12-18T04:34:53;-4.90;99.90
16955;DHT22;8594;52.052;8.354;2022-12-18T04:37:20;-4.80;99.90
16955;DHT22;8594;52.052;8.354;2022-12-18T04:39:47;-4.90;99.90
16955;DHT22;8594;52.052;8.354;2022-12-18T04:42:14;-5.00;99.90
16955;DHT22;8594;52.052;8.354;2022-12-18T04:44:41;-4.80;99.90
16955;DHT22;8594;52.052;8.354;2022-12-18T04:47:08;-4.30;99.90
16955;DHT22;8594;52.052;8.354;2022-12-18T04:49:36;-4.20;99.90
16955;DHT22;8594;52.052;8.354;2022-12-18T04:52:03;-4.00;99.90
16955;DHT22;8594;52.052;8.354;2022-12-18T04:54:30;-4.00;99.90
16955;DHT22;8594;52.052;8.354;2022-12-18T04:56:57;-4.20;99.90
16955;DHT22;8594;52.052;8.354;2022-12-18T04:59:24;-4.30;99.90
16955;DHT22;8594;52.052;8.354;2022-12-18T05:01:51;-4.10;99.90
16955;DHT22;8594;52.052;8.354;2022-12-18T05:04:18;-3.80;99.90
16955;DHT22;8594;52.052;8.354;2022-12-18T05:06:47;-3.70;99.90
16955;DHT22;8594;52.052;8.354;2022-12-18T05:09:14;-3.50;99.90
16955;DHT22;8594;52.052;8.354;2022-12-18T05:11:41;-3.50;99.90
16955;DHT22;8594;52.052;8.354;2022-12-18T05:14:08;-3.50;99.90
16955;DHT22;8594;52.052;8.354;2022-12-18T05:16:34;-3.50;99.90
16955;DHT22;8594;52.052;8.354;2022-12-18T05:19:01;-3.60;99.90
16955;DHT22;8594;52.052;8.354;2022-12-18T05:21:28;-3.70;99.90
16955;DHT22;8594;52.052;8.354;2022-12-18T05:23:57;-3.80;99.90
16955;DHT22;8594;52.052;8.354;2022-12-18T05:26:24;-3.90;99.90
16955;DHT22;8594;52.052;8.354;2022-12-18T05:28:50;-3.80;99.90
16955;DHT22;8594;52.052;8.354;2022-12-18T05:31:17;-3.50;99.90
16955;DHT22;8594;52.052;8.354;2022-12-18T05:33:44;-3.30;99.90
16955;DHT22;8594;52.052;8.354;2022-12-18T05:36:11;-3.20;99.90
16955;DHT22;8594;52.052;8.354;2022-12-18T05:38:39;-3.10;99.90
16955;DHT22;8594;52.052;8.354;2022-12-18T05:41:09;-3.10;99.90
16955;DHT22;8594;52.052;8.354;2022-12-18T05:43:37;-3.00;99.90
16955;DHT22;8594;52.052;8.354;2022-12-18T05:46:06;-3.00;99.90
16955;DHT22;8594;52.052;8.354;2022-12-18T05:48:34;-3.10;99.90
16955;DHT22;8594;52.052;8.354;2022-12-18T05:51:06;-3.10;99.90
16955;DHT22;8594;52.052;8.354;2022-12-18T05:53:36;-3.20;99.90
16955;DHT22;8594;52.052;8.354;2022-12-18T05:56:06;-3.10;99.90
16955;DHT22;8594;52.052;8.354;2022-12-18T05:58:40;-3.00;99.90
16955;DHT22;8594;52.052;8.354;2022-12-18T06:01:09;-3.10;99.90
16955;DHT22;8594;52.052;8.354;2022-12-18T06:03:38;-3.10;99.90
16955;DHT22;8594;52.052;8.354;2022-12-18T06:06:12;-3.10;99.90
16955;DHT22;8594;52.052;8.354;2022-12-18T06:08:41;-3.00;99.90
16955;DHT22;8594;52.052;8.354;2022-12-18T06:11:09;-3.10;99.90
16955;DHT22;8594;52.052;8.354;2022-12-18T06:13:36;-3.00;99.90
16955;DHT22;8594;52.052;8.354;2022-12-18T06:16:04;-3.20;99.90
16955;DHT22;8594;52.052;8.354;2022-12-18T06:18:32;-3.20;99.90
16955;DHT22;8594;52.052;8.354;2022-12-18T06:21:00;-3.10;99.90
16955;DHT22;8594;52.052;8.354;2022-12-18T06:23:27;-3.10;99.90
16955;DHT22;8594;52.052;8.354;2022-12-18T06:25:54;-3.20;99.90
16955;DHT22;8594;52.052;8.354;2022-12-18T06:28:22;-3.30;99.90
16955;DHT22;8594;52.052;8.354;2022-12-18T06:30:50;-3.30;99.90
16955;DHT22;8594;52.052;8.354;2022-12-18T06:33:17;-3.40;99.90
16955;DHT22;8594;52.052;8.354;2022-12-18T06:35:44;-3.70;99.90
16955;DHT22;8594;52.052;8.354;2022-12-18T06:38:11;-3.90;99.90
16955;DHT22;8594;52.052;8.354;2022-12-18T06:40:38;-3.90;99.90
16955;DHT22;8594;52.052;8.354;2022-12-18T06:43:05;-3.80;99.90
16955;DHT22;8594;52.052;8.354;2022-12-18T06:45:34;-3.80;99.90
16955;DHT22;8594;52.052;8.354;2022-12-18T06:48:01;-3.70;99.90
16955;DHT22;8594;52.052;8.354;2022-12-18T06:50:28;-3.60;99.90
16955;DHT22;8594;52.052;8.354;2022-12-18T06:52:55;-3.80;99.90
16955;DHT22;8594;52.052;8.354;2022-12-18T06:55:22;-3.90;99.90
16955;DHT22;8594;52.052;8.354;2022-12-18T06:57:49;-4.00;99.90
16955;DHT22;8594;52.052;8.354;2022-12-18T07:00:17;-4.00;99.90
16955;DHT22;8594;52.052;8.354;2022-12-18T07:02:46;-3.80;99.90
16955;DHT22;8594;52.052;8.354;2022-12-18T07:05:13;-4.00;99.90
16955;DHT22;8594;52.052;8.354;2022-12-18T07:07:40;-3.70;99.90
16955;DHT22;8594;52.052;8.354;2022-12-18T07:10:08;-3.30;99.90
16955;DHT22;8594;52.052;8.354;2022-12-18T07:12:38;-3.10;99.90
16955;DHT22;8594;52.052;8.354;2022-12-18T07:15:06;-3.10;99.90
16955;DHT22;8594;52.052;8.354;2022-12-18T07:17:34;-3.00;99.90
16955;DHT22;8594;52.052;8.354;2022-12-18T07:20:02;-2.90;99.90
16955;DHT22;8594;52.052;8.354;2022-12-18T07:22:30;-2.70;99.90
16955;DHT22;8594;52.052;8.354;2022-12-18T07:24:57;-2.60;99.90
16955;DHT22;8594;52.052;8.354;2022-12-18T07:27:24;-2.50;99.90
16955;DHT22;8594;52.052;8.354;2022-12-18T07:29:51;-2.40;99.90
16955;DHT22;8594;52.052;8.354;2022-12-18T07:32:18;-2.40;99.90
16955;DHT22;8594;52.052;8.354;2022-12-18T07:34:45;-2.30;99.90
16955;DHT22;8594;52.052;8.354;2022-12-18T07:37:13;-2.20;99.90
16955;DHT22;8594;52.052;8.354;2022-12-18T07:39:41;-2.00;99.90
16955;DHT22;8594;52.052;8.354;2022-12-18T07:42:07;-2.10;99.90
16955;DHT22;8594;52.052;8.354;2022-12-18T07:44:52;-2.00;99.90
16955;DHT22;8594;52.052;8.354;2022-12-18T07:47:19;-1.80;99.90
16955;DHT22;8594;52.052;8.354;2022-12-18T07:49:46;-1.90;99.90
16955;DHT22;8594;52.052;8.354;2022-12-18T07:52:14;-1.80;99.90
16955;DHT22;8594;52.052;8.354;2022-12-18T07:54:41;-1.70;99.90
16955;DHT22;8594;52.052;8.354;2022-12-18T07:57:08;-1.60;99.90
16955;DHT22;8594;52.052;8.354;2022-12-18T07:59:35;-1.60;99.90
16955;DHT22;8594;52.052;8.354;2022-12-18T08:02:02;-1.40;99.90
16955;DHT22;8594;52.052;8.354;2022-12-18T08:04:30;-1.40;99.90
16955;DHT22;8594;52.052;8.354;2022-12-18T08:06:57;-1.50;99.90
16955;DHT22;8594;52.052;8.354;2022-12-18T08:09:25;-1.40;99.90
16955;DHT22;8594;52.052;8.354;2022-12-18T08:11:52;-1.40;99.90
16955;DHT22;8594;52.052;8.354;2022-12-18T08:14:19;-1.40;99.90
16955;DHT22;8594;52.052;8.354;2022-12-18T08:16:45;-1.40;99.90
16955;DHT22;8594;52.052;8.354;2022-12-18T08:19:12;-1.40;99.90
16955;DHT22;8594;52.052;8.354;2022-12-18T08:21:39;-1.30;99.90
16955;DHT22;8594;52.052;8.354;2022-12-18T08:24:08;-1.40;99.90
16955;DHT22;8594;52.052;8.354;2022-12-18T08:26:37;-1.40;99.90
16955;DHT22;8594;52.052;8.354;2022-12-18T08:29:05;-1.30;99.90
16955;DHT22;8594;52.052;8.354;2022-12-18T08:31:31;-1.20;99.90
16955;DHT22;8594;52.052;8.354;2022-12-18T08:33:59;-1.20;99.90
16955;DHT22;8594;52.052;8.354;2022-12-18T08:36:26;-1.10;99.90
16955;DHT22;8594;52.052;8.354;2022-12-18T08:38:53;-0.90;99.90
16955;DHT22;8594;52.052;8.354;2022-12-18T08:41:21;-0.70;99.90
16955;DHT22;8594;52.052;8.354;2022-12-18T08:43:49;-0.50;99.90
16955;DHT22;8594;52.052;8.354;2022-12-18T08:46:35;-0.10;99.90
16955;DHT22;8594;52.052;8.354;2022-12-18T08:49:07;0.30;99.90
16955;DHT22;8594;52.052;8.354;2022-12-18T08:51:35;0.70;99.90
16955;DHT22;8594;52.052;8.354;2022-12-18T08:54:03;0.80;99.90
16955;DHT22;8594;52.052;8.354;2022-12-18T08:56:31;1.10;99.90
16955;DHT22;8594;52.052;8.354;2022-12-18T08:58:59;1.40;99.90
16955;DHT22;8594;52.052;8.354;2022-12-18T09:01:26;1.90;99.90
16955;DHT22;8594;52.052;8.354;2022-12-18T09:03:53;2.20;99.90
16955;DHT22;8594;52.052;8.354;2022-12-18T09:06:21;1.90;99.90
16955;DHT22;8594;52.052;8.354;2022-12-18T09:08:49;1.60;99.90
16955;DHT22;8594;52.052;8.354;2022-12-18T09:11:20;1.60;99.90
16955;DHT22;8594;52.052;8.354;2022-12-18T09:13:49;1.50;99.90
16955;DHT22;8594;52.052;8.354;2022-12-18T09:16:18;1.20;99.90
16955;DHT22;8594;52.052;8.354;2022-12-18T09:18:46;0.70;99.90
16955;DHT22;8594;52.052;8.354;2022-12-18T09:21:16;0.70;99.90
16955;DHT22;8594;52.052;8.354;2022-12-18T09:23:48;0.50;99.90
16955;DHT22;8594;52.052;8.354;2022-12-18T09:26:16;0.60;99.90
16955;DHT22;8594;52.052;8.354;2022-12-18T09:28:43;0.60;99.90
16955;DHT22;8594;52.052;8.354;2022-12-18T09:31:12;0.50;99.90
16955;DHT22;8594;52.052;8.354;2022-12-18T09:33:41;0.70;99.90
16955;DHT22;8594;52.052;8.354;2022-12-18T09:36:12;0.50;99.90
16955;DHT22;8594;52.052;8.354;2022-12-18T09:38:40;0.30;99.90
16955;DHT22;8594;52.052;8.354;2022-12-18T09:41:20;0.20;99.90
16955;DHT22;8594;52.052;8.354;2022-12-18T09:44:03;0.10;99.90
16955;DHT22;8594;52.052;8.354;2022-12-18T09:46:40;0.00;99.90
16955;DHT22;8594;52.052;8.354;2022-12-18T09:49:15;0.10;99.90
16955;DHT22;8594;52.052;8.354;2022-12-18T09:51:47;0.20;99.90
16955;DHT22;8594;52.052;8.354;2022-12-18T09:54:21;0.70;99.90
16955;DHT22;8594;52.052;8.354;2022-12-18T09:56:51;1.20;99.90
16955;DHT22;8594;52.052;8.354;2022-12-18T09:59:23;1.10;99.90
16955;DHT22;8594;52.052;8.354;2022-12-18T10:01:51;1.20;99.90
16955;DHT22;8594;52.052;8.354;2022-12-18T10:04:20;1.30;99.90
16955;DHT22;8594;52.052;8.354;2022-12-18T10:06:52;1.40;99.90
16955;DHT22;8594;52.052;8.354;2022-12-18T10:09:28;1.40;99.90
16955;DHT22;8594;52.052;8.354;2022-12-18T10:12:08;1.60;99.90
16955;DHT22;8594;52.052;8.354;2022-12-18T10:14:47;1.80;99.90
16955;DHT22;8594;52.052;8.354;2022-12-18T10:17:28;1.80;99.90
16955;DHT22;8594;52.052;8.354;2022-12-18T10:20:10;1.90;99.90
16955;DHT22;8594;52.052;8.354;2022-12-18T10:22:50;2.00;99.90
16955;DHT22;8594;52.052;8.354;2022-12-18T10:25:25;2.20;99.90
16955;DHT22;8594;52.052;8.354;2022-12-18T10:28:00;2.10;99.90
16955;DHT22;8594;52.052;8.354;2022-12-18T10:30:38;2.00;99.90
16955;DHT22;8594;52.052;8.354;2022-12-18T10:33:05;2.10;99.90
16955;DHT22;8594;52.052;8.354;2022-12-18T10:35:41;2.10;99.90
16955;DHT22;8594;52.052;8.354;2022-12-18T10:38:21;2.30;99.90
16955;DHT22;8594;52.052;8.354;2022-12-18T10:40:53;2.30;99.90
16955;DHT22;8594;52.052;8.354;2022-12-18T10:43:24;1.90;99.90
16955;DHT22;8594;52.052;8.354;2022-12-18T10:46:12;2.30;99.90
16955;DHT22;8594;52.052;8.354;2022-12-18T10:48:53;2.30;99.90
16955;DHT22;8594;52.052;8.354;2022-12-18T10:51:26;2.30;99.90
16955;DHT22;8594;52.052;8.354;2022-12-18T10:53:57;2.10;99.90
16955;DHT22;8594;52.052;8.354;2022-12-18T10:56:29;2.10;99.90
16955;DHT22;8594;52.052;8.354;2022-12-18T10:59:01;2.30;99.90
16955;DHT22;8594;52.052;8.354;2022-12-18T11:01:45;2.20;99.90
16955;DHT22;8594;52.052;8.354;2022-12-18T11:04:17;2.30;99.90
16955;DHT22;8594;52.052;8.354;2022-12-18T11:06:59;2.20;99.90
16955;DHT22;8594;52.052;8.354;2022-12-18T11:09:28;1.90;99.90
16955;DHT22;8594;52.052;8.354;2022-12-18T11:11:59;1.90;99.90
16955;DHT22;8594;52.052;8.354;2022-12-18T11:14:30;1.90;99.90
16955;DHT22;8594;52.052;8.354;2022-12-18T11:17:00;1.80;99.90
16955;DHT22;8594;52.052;8.354;2022-12-18T11:19:33;1.80;99.90
16955;DHT22;8594;52.052;8.354;2022-12-18T11:22:18;1.80;99.90
16955;DHT22;8594;52.052;8.354;2022-12-18T11:24:53;1.90;99.90
16955;DHT22;8594;52.052;8.354;2022-12-18T11:27:23;1.80;99.90
16955;DHT22;8594;52.052;8.354;2022-12-18T11:29:51;1.70;99.90
16955;DHT22;8594;52.052;8.354;2022-12-18T11:32:29;1.60;99.90
16955;DHT22;8594;52.052;8.354;2022-12-18T11:35:11;1.70;99.90
16955;DHT22;8594;52.052;8.354;2022-12-18T11:37:50;1.60;99.90
16955;DHT22;8594;52.052;8.354;2022-12-18T11:40:30;1.70;99.90
16955;DHT22;8594;52.052;8.354;2022-12-18T11:43:08;1.90;99.90
16955;DHT22;8594;52.052;8.354;2022-12-18T11:45:43;2.00;99.90
16955;DHT22;8594;52.052;8.354;2022-12-18T11:48:21;1.90;99.90
16955;DHT22;8594;52.052;8.354;2022-12-18T11:50:52;1.70;99.90
16955;DHT22;8594;52.052;8.354;2022-12-18T11:53:23;1.70;99.90
16955;DHT22;8594;52.052;8.354;2022-12-18T11:56:01;1.70;99.90
16955;DHT22;8594;52.052;8.354;2022-12-18T11:58:46;1.80;99.90
16955;DHT22;8594;52.052;8.354;2022-12-18T12:01:27;1.80;99.90
16955;DHT22;8594;52.052;8.354;2022-12-18T12:04:22;1.80;99.90
16955;DHT22;8594;52.052;8.354;2022-12-18T12:07:12;1.80;99.90
16955;DHT22;8594;52.052;8.354;2022-12-18T12:10:08;1.60;99.90
16955;DHT22;8594;52.052;8.354;2022-12-18T12:12:55;1.70;99.90
16955;DHT22;8594;52.052;8.354;2022-12-18T12:15:42;1.90;99.90
16955;DHT22;8594;52.052;8.354;2022-12-18T12:18:23;1.80;99.90
16955;DHT22;8594;52.052;8.354;2022-12-18T12:21:04;1.80;99.90
16955;DHT22;8594;52.052;8.354;2022-12-18T12:23:43;1.80;99.90
16955;DHT22;8594;52.052;8.354;2022-12-18T12:26:27;1.80;99.90
16955;DHT22;8594;52.052;8.354;2022-12-18T12:29:23;1.90;99.90
16955;DHT22;8594;52.052;8.354;2022-12-18T12:32:09;2.00;99.90
16955;DHT22;8594;52.052;8.354;2022-12-18T12:34:53;2.10;99.90
16955;DHT22;8594;52.052;8.354;2022-12-18T12:37:39;1.90;99.90
16955;DHT22;8594;52.052;8.354;2022-12-18T12:40:18;2.10;99.90
16955;DHT22;8594;52.052;8.354;2022-12-18T12:42:52;2.10;99.90
16955;DHT22;8594;52.052;8.354;2022-12-18T12:45:46;2.30;99.90
16955;DHT22;8594;52.052;8.354;2022-12-18T12:48:25;2.00;99.90
16955;DHT22;8594;52.052;8.354;2022-12-18T12:51:14;2.20;99.90
16955;DHT22;8594;52.052;8.354;2022-12-18T12:53:44;2.20;99.90
16955;DHT22;8594;52.052;8.354;2022-12-18T12:56:14;2.20;99.90
16955;DHT22;8594;52.052;8.354;2022-12-18T12:58:54;2.10;99.90
16955;DHT22;8594;52.052;8.354;2022-12-18T13:01:34;2.20;99.90
16955;DHT22;8594;52.052;8.354;2022-12-18T13:04:15;2.10;99.90
16955;DHT22;8594;52.052;8.354;2022-12-18T13:06:53;2.10;99.90
16955;DHT22;8594;52.052;8.354;2022-12-18T13:09:30;1.90;99.90
16955;DHT22;8594;52.052;8.354;2022-12-18T13:12:03;1.80;99.90
16955;DHT22;8594;52.052;8.354;2022-12-18T13:14:50;2.00;99.90
16955;DHT22;8594;52.052;8.354;2022-12-18T13:17:29;1.90;99.90
16955;DHT22;8594;52.052;8.354;2022-12-18T13:20:11;1.90;99.90
16955;DHT22;8594;52.052;8.354;2022-12-18T13:22:43;1.90;99.90
16955;DHT22;8594;52.052;8.354;2022-12-18T13:25:32;1.80;99.90
16955;DHT22;8594;52.052;8.354;2022-12-18T13:28:04;2.00;99.90
16955;DHT22;8594;52.052;8.354;2022-12-18T13:31:00;1.90;99.90
16955;DHT22;8594;52.052;8.354;2022-12-18T13:33:41;2.00;99.90
16955;DHT22;8594;52.052;8.354;2022-12-18T13:36:15;2.00;99.90
16955;DHT22;8594;52.052;8.354;2022-12-18T13:39:15;2.10;99.90
16955;DHT22;8594;52.052;8.354;2022-12-18T13:41:53;2.10;99.90
16955;DHT22;8594;52.052;8.354;2022-12-18T13:45:00;2.10;99.90
16955;DHT22;8594;52.052;8.354;2022-12-18T13:47:32;2.10;99.90
16955;DHT22;8594;52.052;8.354;2022-12-18T13:50:04;2.10;99.90
16955;DHT22;8594;52.052;8.354;2022-12-18T13:52:39;2.00;99.90
16955;DHT22;8594;52.052;8.354;2022-12-18T13:55:14;2.10;99.90
16955;DHT22;8594;52.052;8.354;2022-12-18T13:57:44;2.20;99.90
16955;DHT22;8594;52.052;8.354;2022-12-18T14:00:24;2.10;99.90
16955;DHT22;8594;52.052;8.354;2022-12-18T14:02:55;2.00;99.90
16955;DHT22;8594;52.052;8.354;2022-12-18T14:05:24;2.10;99.90
16955;DHT22;8594;52.052;8.354;2022-12-18T14:07:53;2.10;99.90
16955;DHT22;8594;52.052;8.354;2022-12-18T14:10:27;2.10;99.90
16955;DHT22;8594;52.052;8.354;2022-12-18T14:12:54;2.10;99.90
16955;DHT22;8594;52.052;8.354;2022-12-18T14:15:30;2.10;99.90
16955;DHT22;8594;52.052;8.354;2022-12-18T14:18:03;2.10;99.90
16955;DHT22;8594;52.052;8.354;2022-12-18T14:20:44;2.10;99.90
16955;DHT22;8594;52.052;8.354;2022-12-18T14:23:26;2.10;99.90
16955;DHT22;8594;52.052;8.354;2022-12-18T14:25:55;2.10;99.90
16955;DHT22;8594;52.052;8.354;2022-12-18T14:28:23;2.10;99.90
16955;DHT22;8594;52.052;8.354;2022-12-18T14:30:51;2.10;99.90
16955;DHT22;8594;52.052;8.354;2022-12-18T14:33:23;2.10;99.90
16955;DHT22;8594;52.052;8.354;2022-12-18T14:35:58;1.90;99.90
16955;DHT22;8594;52.052;8.354;2022-12-18T14:38:30;1.80;99.90
16955;DHT22;8594;52.052;8.354;2022-12-18T14:40:59;1.90;99.90
16955;DHT22;8594;52.052;8.354;2022-12-18T14:43:28;1.80;99.90
16955;DHT22;8594;52.052;8.354;2022-12-18T14:45:57;1.80;99.90
16955;DHT22;8594;52.052;8.354;2022-12-18T14:48:36;1.80;99.90
16955;DHT22;8594;52.052;8.354;2022-12-18T14:51:06;1.80;99.90
16955;DHT22;8594;52.052;8.354;2022-12-18T14:53:43;1.80;99.90
16955;DHT22;8594;52.052;8.354;2022-12-18T14:56:17;1.90;99.90
16955;DHT22;8594;52.052;8.354;2022-12-18T14:58:51;1.90;99.90
16955;DHT22;8594;52.052;8.354;2022-12-18T15:01:23;1.90;99.90
16955;DHT22;8594;52.052;8.354;2022-12-18T15:03:54;1.70;99.90
16955;DHT22;8594;52.052;8.354;2022-12-18T15:06:28;1.80;99.90
16955;DHT22;8594;52.052;8.354;2022-12-18T15:08:59;1.70;99.90
16955;DHT22;8594;52.052;8.354;2022-12-18T15:11:33;1.90;99.90
16955;DHT22;8594;52.052;8.354;2022-12-18T15:14:22;1.90;99.90
16955;DHT22;8594;52.052;8.354;2022-12-18T15:16:52;1.80;99.90
16955;DHT22;8594;52.052;8.354;2022-12-18T15:19:22;1.90;99.90
16955;DHT22;8594;52.052;8.354;2022-12-18T15:21:54;1.90;99.90
16955;DHT22;8594;52.052;8.354;2022-12-18T15:24:26;1.70;99.90
16955;DHT22;8594;52.052;8.354;2022-12-18T15:26:56;1.70;99.90
16955;DHT22;8594;52.052;8.354;2022-12-18T15:29:23;1.60;99.90
16955;DHT22;8594;52.052;8.354;2022-12-18T15:32:02;1.60;99.90
16955;DHT22;8594;52.052;8.354;2022-12-18T15:34:32;1.60;99.90
16955;DHT22;8594;52.052;8.354;2022-12-18T15:37:00;1.50;99.90
16955;DHT22;8594;52.052;8.354;2022-12-18T15:39:27;1.40;99.90
16955;DHT22;8594;52.052;8.354;2022-12-18T15:41:54;1.50;99.90
16955;DHT22;8594;52.052;8.354;2022-12-18T15:44:38;1.50;99.90
16955;DHT22;8594;52.052;8.354;2022-12-18T15:47:10;1.60;99.90
16955;DHT22;8594;52.052;8.354;2022-12-18T15:49:40;1.60;99.90
16955;DHT22;8594;52.052;8.354;2022-12-18T15:52:11;1.60;99.90
16955;DHT22;8594;52.052;8.354;2022-12-18T15:54:51;1.50;99.90
16955;DHT22;8594;52.052;8.354;2022-12-18T15:57:35;1.50;99.90
16955;DHT22;8594;52.052;8.354;2022-12-18T16:00:03;1.50;99.90
16955;DHT22;8594;52.052;8.354;2022-12-18T16:02:30;1.40;99.90
16955;DHT22;8594;52.052;8.354;2022-12-18T16:05:00;1.40;99.90
16955;DHT22;8594;52.052;8.354;2022-12-18T16:07:27;1.20;99.90
16955;DHT22;8594;52.052;8.354;2022-12-18T16:09:54;1.20;99.90
16955;DHT22;8594;52.052;8.354;2022-12-18T16:12:22;1.30;99.90
16955;DHT22;8594;52.052;8.354;2022-12-18T16:14:51;1.30;99.90
16955;DHT22;8594;52.052;8.354;2022-12-18T16:17:18;1.20;99.90
16955;DHT22;8594;52.052;8.354;2022-12-18T16:19:45;1.10;99.90
16955;DHT22;8594;52.052;8.354;2022-12-18T16:22:21;1.10;99.90
16955;DHT22;8594;52.052;8.354;2022-12-18T16:24:49;1.20;99.90